createdAt,value
2019-03-29T00:00:39.497Z,3.41
2019-03-29T00:02:47.268Z,3.36
2019-03-29T00:04:55.197Z,3.25
2019-03-29T00:07:03.968Z,3.21
2019-03-29T00:09:12.197Z,3.13
2019-03-29T00:11:20.040Z,3.04
2019-03-29T00:13:27.735Z,2.93
2019-03-29T00:15:35.663Z,2.86
2019-03-29T00:17:44.144Z,2.89
2019-03-29T00:19:51.789Z,2.67
2019-03-29T00:21:59.492Z,2.50
2019-03-29T00:24:07.435Z,2.49
2019-03-29T00:26:15.157Z,2.52
2019-03-29T00:28:22.955Z,2.53
2019-03-29T00:30:30.655Z,2.56
2019-03-29T00:32:39.621Z,2.58
2019-03-29T00:34:47.925Z,2.52
2019-03-29T00:36:56.736Z,2.37
2019-03-29T00:39:07.139Z,2.41
2019-03-29T00:41:15.021Z,2.55
2019-03-29T00:43:22.711Z,2.61
2019-03-29T00:45:30.550Z,2.66
2019-03-29T00:47:38.461Z,2.70
2019-03-29T00:49:46.321Z,2.72
2019-03-29T00:51:54.019Z,2.74
2019-03-29T00:54:02.080Z,2.71
2019-03-29T00:56:10.136Z,2.69
2019-03-29T00:58:18.069Z,2.64
2019-03-29T01:00:26.049Z,2.61
2019-03-29T01:02:33.772Z,2.60
2019-03-29T01:04:41.513Z,2.59
2019-03-29T01:06:49.276Z,2.57
2019-03-29T01:08:57.009Z,2.56
2019-03-29T01:11:04.770Z,2.52
2019-03-29T01:13:12.465Z,2.50
2019-03-29T01:15:20.216Z,2.49
2019-03-29T01:17:27.991Z,2.50
2019-03-29T01:19:35.979Z,2.48
2019-03-29T01:21:43.802Z,2.48
2019-03-29T01:23:51.501Z,2.47
2019-03-29T01:25:59.088Z,2.44
2019-03-29T01:28:06.881Z,2.39
2019-03-29T01:30:14.814Z,2.36
2019-03-29T01:32:22.507Z,2.33
2019-03-29T01:34:30.670Z,2.33
2019-03-29T01:36:38.426Z,2.30
2019-03-29T01:38:46.168Z,2.29
2019-03-29T01:40:55.057Z,2.25
2019-03-29T01:43:02.827Z,2.17
2019-03-29T01:45:11.299Z,2.15
2019-03-29T01:47:19.041Z,2.13
2019-03-29T01:49:26.870Z,2.09
2019-03-29T01:51:34.570Z,2.05
2019-03-29T01:53:42.391Z,2.01
2019-03-29T01:55:50.159Z,1.98
2019-03-29T01:57:58.926Z,1.93
2019-03-29T02:00:09.066Z,1.88
2019-03-29T02:02:17.059Z,1.86
2019-03-29T02:04:24.653Z,1.78
2019-03-29T02:06:32.715Z,1.76
2019-03-29T02:08:40.408Z,1.77
2019-03-29T02:10:49.428Z,1.74
2019-03-29T02:12:57.276Z,1.71
2019-03-29T02:15:08.118Z,1.69
2019-03-29T02:17:15.711Z,1.68
2019-03-29T02:19:23.432Z,1.67
2019-03-29T02:21:31.501Z,1.66
2019-03-29T02:23:39.267Z,1.66
2019-03-29T02:25:47.028Z,1.52
2019-03-29T02:27:54.825Z,1.59
2019-03-29T02:30:04.250Z,1.61
2019-03-29T02:32:12.645Z,1.61
2019-03-29T02:34:20.423Z,1.66
2019-03-29T02:36:28.114Z,1.71
2019-03-29T02:38:47.502Z,1.75
2019-03-29T02:40:45.592Z,1.79
2019-03-29T02:42:53.799Z,1.81
2019-03-29T02:45:03.396Z,1.83
2019-03-29T02:47:10.883Z,1.87
2019-03-29T02:49:18.579Z,1.89
2019-03-29T02:51:26.354Z,1.80
2019-03-29T02:53:34.151Z,1.73
2019-03-29T02:55:41.819Z,1.72
2019-03-29T02:57:49.609Z,1.72
2019-03-29T02:59:57.315Z,1.61
2019-03-29T03:02:05.496Z,1.52
2019-03-29T03:04:13.233Z,1.59
2019-03-29T03:06:21.099Z,1.54
2019-03-29T03:08:32.702Z,1.43
2019-03-29T03:10:38.290Z,1.36
2019-03-29T03:12:46.138Z,1.23
2019-03-29T03:14:54.014Z,1.22
2019-03-29T03:17:01.776Z,1.37
2019-03-29T03:19:09.602Z,1.51
2019-03-29T03:21:17.370Z,1.59
2019-03-29T03:23:25.161Z,1.72
2019-03-29T03:25:33.008Z,1.68
2019-03-29T03:27:40.989Z,1.81
2019-03-29T03:29:48.922Z,1.91
2019-03-29T03:31:56.622Z,1.97
2019-03-29T03:34:04.329Z,2.01
2019-03-29T03:36:12.277Z,2.03
2019-03-29T03:38:20.129Z,2.03
2019-03-29T03:40:27.786Z,2.05
2019-03-29T03:42:35.728Z,2.04
2019-03-29T03:44:43.552Z,1.98
2019-03-29T03:46:52.506Z,1.89
2019-03-29T03:49:00.292Z,1.74
2019-03-29T03:51:08.264Z,1.67
2019-03-29T03:53:16.078Z,1.56
2019-03-29T03:55:23.903Z,1.39
2019-03-29T03:57:33.296Z,1.26
2019-03-29T03:59:41.969Z,1.17
2019-03-29T04:01:49.708Z,1.13
2019-03-29T04:03:57.351Z,1.09
2019-03-29T04:06:05.282Z,1.03
2019-03-29T04:08:13.013Z,1.06
2019-03-29T04:10:20.707Z,1.15
2019-03-29T04:12:28.572Z,1.21
2019-03-29T04:14:36.528Z,1.32
2019-03-29T04:16:44.223Z,1.39
2019-03-29T04:18:51.924Z,1.49
2019-03-29T04:20:59.726Z,1.62
2019-03-29T04:23:07.759Z,1.69
2019-03-29T04:25:15.445Z,1.72
2019-03-29T04:27:23.075Z,1.73
2019-03-29T04:29:30.912Z,1.69
2019-03-29T04:31:38.578Z,1.69
2019-03-29T04:33:46.299Z,1.69
2019-03-29T04:35:53.955Z,1.68
2019-03-29T04:38:02.626Z,1.68
2019-03-29T04:40:10.698Z,1.68
2019-03-29T04:42:18.471Z,1.69
2019-03-29T04:44:26.177Z,1.69
2019-03-29T04:46:34.681Z,1.71
2019-03-29T04:48:42.439Z,1.73
2019-03-29T04:50:50.128Z,1.49
2019-03-29T04:52:57.848Z,1.41
2019-03-29T04:55:07.485Z,1.58
2019-03-29T04:57:15.177Z,1.65
2019-03-29T04:59:22.947Z,1.67
2019-03-29T05:01:30.856Z,1.39
2019-03-29T05:03:38.655Z,1.38
2019-03-29T05:05:46.384Z,1.47
2019-03-29T05:07:54.151Z,1.55
2019-03-29T05:10:01.985Z,1.62
2019-03-29T05:12:09.915Z,1.70
2019-03-29T05:14:17.800Z,1.78
2019-03-29T05:16:26.700Z,1.97
2019-03-29T05:18:34.522Z,2.01
2019-03-29T05:20:42.124Z,2.10
2019-03-29T05:22:49.894Z,2.15
2019-03-29T05:24:57.741Z,2.26
2019-03-29T05:27:05.583Z,2.48
2019-03-29T05:29:13.370Z,2.55
2019-03-29T05:31:21.116Z,2.77
2019-03-29T05:33:28.945Z,2.92
2019-03-29T05:35:36.958Z,3.05
2019-03-29T05:37:46.028Z,3.16
2019-03-29T05:39:53.812Z,3.21
2019-03-29T05:42:02.674Z,3.33
2019-03-29T05:44:10.400Z,3.42
2019-03-29T05:46:18.173Z,3.49
2019-03-29T05:48:26.706Z,3.55
2019-03-29T05:50:36.795Z,3.62
2019-03-29T05:52:43.811Z,3.66
2019-03-29T05:54:51.554Z,3.73
2019-03-29T05:56:59.335Z,3.77
2019-03-29T05:59:07.171Z,3.64
2019-03-29T06:01:14.940Z,3.72
2019-03-29T06:03:22.804Z,3.82
2019-03-29T06:05:30.511Z,3.96
2019-03-29T06:07:38.285Z,4.00
2019-03-29T06:09:46.073Z,3.78
2019-03-29T06:11:54.961Z,3.57
2019-03-29T06:14:02.834Z,3.46
2019-03-29T06:16:10.630Z,3.51
2019-03-29T06:18:18.321Z,3.59
2019-03-29T06:20:25.982Z,3.59
2019-03-29T06:22:33.737Z,3.72
2019-03-29T06:24:41.533Z,3.64
2019-03-29T06:26:49.343Z,3.76
2019-03-29T06:28:57.735Z,3.79
2019-03-29T06:31:05.670Z,3.91
2019-03-29T06:33:13.379Z,3.95
2019-03-29T06:35:21.146Z,4.11
2019-03-29T06:37:29.948Z,4.23
2019-03-29T06:39:38.068Z,4.40
2019-03-29T06:41:45.853Z,4.36
2019-03-29T06:43:53.694Z,4.53
2019-03-29T06:46:01.453Z,4.61
2019-03-29T06:48:09.179Z,4.39
2019-03-29T06:50:18.066Z,4.42
2019-03-29T06:52:25.767Z,4.42
2019-03-29T06:54:33.650Z,4.54
2019-03-29T06:56:41.591Z,4.75
2019-03-29T06:58:49.293Z,4.90
2019-03-29T07:00:56.929Z,4.85
2019-03-29T07:03:04.903Z,4.93
2019-03-29T07:05:12.727Z,5.03
2019-03-29T07:07:20.491Z,5.06
2019-03-29T07:09:28.278Z,5.20
2019-03-29T07:11:39.424Z,5.34
2019-03-29T07:13:56.680Z,5.47
2019-03-29T07:15:54.889Z,5.50
2019-03-29T07:18:02.579Z,5.52
2019-03-29T07:20:10.811Z,5.60
2019-03-29T07:22:18.399Z,5.79
2019-03-29T07:24:26.194Z,5.84
2019-03-29T07:26:33.991Z,5.93
2019-03-29T07:28:41.863Z,5.80
2019-03-29T07:30:49.675Z,5.96
2019-03-29T07:52:07.212Z,7.44
2019-03-29T07:54:15.039Z,7.21
2019-03-29T07:56:22.726Z,7.26
2019-03-29T07:58:32.147Z,7.33
2019-03-29T08:00:39.835Z,7.44
2019-03-29T08:02:47.525Z,7.56
2019-03-29T08:04:55.231Z,7.60
2019-03-29T08:07:02.915Z,7.90
2019-03-29T08:09:21.712Z,8.16
2019-03-29T08:11:26.432Z,8.16
2019-03-29T08:13:30.496Z,8.24
2019-03-29T08:15:38.199Z,8.46
2019-03-29T08:17:46.375Z,8.73
2019-03-29T08:20:13.340Z,8.85
2019-03-29T08:22:03.424Z,9.08
2019-03-29T08:24:11.203Z,9.32
2019-03-29T08:26:18.953Z,9.31
2019-03-29T08:28:26.707Z,9.43
2019-03-29T08:30:34.414Z,9.41
2019-03-29T08:32:42.235Z,9.14
2019-03-29T08:34:50.058Z,9.30
2019-03-29T08:36:57.768Z,9.30
2019-03-29T08:39:10.185Z,9.13
2019-03-29T08:41:17.221Z,9.16
2019-03-29T08:43:24.921Z,9.18
2019-03-29T08:45:32.675Z,9.21
2019-03-29T08:47:40.262Z,8.95
2019-03-29T08:49:47.970Z,9.03
2019-03-29T08:51:55.719Z,8.77
2019-03-29T08:54:04.361Z,8.87
2019-03-29T08:56:13.423Z,8.56
2019-03-29T08:58:21.007Z,8.68
2019-03-29T09:00:32.980Z,8.59
2019-03-29T09:02:40.589Z,8.49
2019-03-29T09:04:48.399Z,8.48
2019-03-29T09:06:56.074Z,8.46
2019-03-29T09:09:04.500Z,8.56
2019-03-29T09:11:12.177Z,8.73
2019-03-29T09:13:20.130Z,8.77
2019-03-29T09:15:28.006Z,8.78
2019-03-29T09:17:35.678Z,8.83
2019-03-29T09:19:44.434Z,8.88
2019-03-29T09:21:52.199Z,8.72
2019-03-29T09:24:00.114Z,8.86
2019-03-29T09:26:07.863Z,9.05
2019-03-29T09:28:15.572Z,9.22
2019-03-29T09:30:23.249Z,9.25
2019-03-29T09:32:30.930Z,9.72
2019-03-29T09:34:41.147Z,9.83
2019-03-29T09:36:48.776Z,9.33
2019-03-29T09:38:56.458Z,9.50
2019-03-29T09:41:04.164Z,9.50
2019-03-29T09:43:11.984Z,9.93
2019-03-29T09:45:19.727Z,10.19
2019-03-29T09:47:27.601Z,10.06
2019-03-29T09:49:35.314Z,9.83
2019-03-29T09:51:42.989Z,9.81
2019-03-29T09:53:50.612Z,9.84
2019-03-29T09:55:58.340Z,9.81
2019-03-29T09:58:06.076Z,9.78
2019-03-29T10:00:21.058Z,9.36
2019-03-29T10:02:23.485Z,9.33
2019-03-29T10:04:31.163Z,9.43
2019-03-29T10:06:38.994Z,9.71
2019-03-29T10:08:46.821Z,9.86
2019-03-29T10:10:55.685Z,10.08
2019-03-29T10:13:03.481Z,10.11
2019-03-29T10:15:11.311Z,10.00
2019-03-29T10:17:19.005Z,10.23
2019-03-29T10:19:26.751Z,10.02
2019-03-29T10:21:34.435Z,9.99
2019-03-29T10:23:42.134Z,10.36
2019-03-29T10:25:50.004Z,10.36
2019-03-29T10:27:57.823Z,10.41
2019-03-29T10:30:09.074Z,10.67
2019-03-29T10:32:16.791Z,10.65
2019-03-29T10:34:24.513Z,10.75
2019-03-29T10:36:32.306Z,11.06
2019-03-29T10:38:40.217Z,11.01
2019-03-29T10:40:47.908Z,10.46
2019-03-29T10:42:58.064Z,10.49
2019-03-29T10:45:05.984Z,10.43
2019-03-29T10:47:13.574Z,10.42
2019-03-29T10:49:21.270Z,10.72
2019-03-29T10:51:29.003Z,10.95
2019-03-29T10:53:36.691Z,11.30
2019-03-29T10:55:44.389Z,11.23
2019-03-29T10:57:52.971Z,11.23
2019-03-29T11:00:00.652Z,11.49
2019-03-29T11:02:09.770Z,11.55
2019-03-29T11:04:17.585Z,11.56
2019-03-29T11:06:25.274Z,11.36
2019-03-29T11:08:32.858Z,10.91
2019-03-29T11:10:41.609Z,11.04
2019-03-29T11:12:49.195Z,10.81
2019-03-29T11:14:56.883Z,11.11
2019-03-29T11:17:04.645Z,11.14
2019-03-29T11:19:12.436Z,10.79
2019-03-29T11:21:20.180Z,10.96
2019-03-29T11:23:27.898Z,10.93
2019-03-29T11:25:35.583Z,11.23
2019-03-29T11:27:43.265Z,11.24
2019-03-29T11:29:50.970Z,11.22
2019-03-29T11:31:58.722Z,11.43
2019-03-29T11:34:07.275Z,11.48
2019-03-29T11:36:15.241Z,11.35
2019-03-29T11:38:23.050Z,11.08
2019-03-29T11:40:30.634Z,11.10
2019-03-29T11:42:38.359Z,11.21
2019-03-29T11:44:46.040Z,11.31
2019-03-29T11:46:53.874Z,11.04
2019-03-29T11:49:01.586Z,10.85
2019-03-29T11:51:19.217Z,10.83
2019-03-29T11:53:20.012Z,11.08
2019-03-29T11:55:27.955Z,11.47
2019-03-29T11:57:35.804Z,11.58
2019-03-29T11:59:44.350Z,11.44
2019-03-29T12:01:52.127Z,11.58
2019-03-29T12:03:59.811Z,11.45
2019-03-29T12:06:07.725Z,11.60
2019-03-29T12:08:15.436Z,11.41
2019-03-29T12:10:23.133Z,11.37
2019-03-29T12:12:30.891Z,11.66
2019-03-29T12:14:38.620Z,11.97
2019-03-29T12:16:46.398Z,11.62
2019-03-29T12:18:54.078Z,11.63
2019-03-29T12:21:03.007Z,11.72
2019-03-29T12:23:10.782Z,11.73
2019-03-29T12:25:18.433Z,11.60
2019-03-29T12:27:26.213Z,11.94
2019-03-29T12:29:33.992Z,11.55
2019-03-29T12:31:41.678Z,11.52
2019-03-29T12:33:49.393Z,11.51
2019-03-29T12:35:57.079Z,11.42
2019-03-29T12:38:05.183Z,11.60
2019-03-29T12:40:13.266Z,11.87
2019-03-29T12:42:21.040Z,11.56
2019-03-29T12:44:28.729Z,11.49
2019-03-29T12:46:36.584Z,11.40
2019-03-29T12:48:44.340Z,11.37
2019-03-29T12:50:52.088Z,11.50
2019-03-29T12:52:59.826Z,11.55
2019-03-29T12:55:07.919Z,11.55
2019-03-29T12:57:15.607Z,11.67
2019-03-29T12:59:23.385Z,11.48
2019-03-29T13:01:39.345Z,11.61
2019-03-29T13:03:41.348Z,11.63
2019-03-29T13:05:49.067Z,11.71
2019-03-29T13:07:56.750Z,11.54
2019-03-29T13:10:09.603Z,11.42
2019-03-29T13:12:17.390Z,11.70
2019-03-29T13:14:25.091Z,11.83
2019-03-29T13:16:32.767Z,11.58
2019-03-29T13:18:40.485Z,11.57
2019-03-29T13:20:48.244Z,11.65
2019-03-29T13:22:55.901Z,11.56
2019-03-29T13:25:07.207Z,11.77
2019-03-29T13:27:13.730Z,11.69
2019-03-29T13:29:21.579Z,11.70
2019-03-29T13:31:29.351Z,11.57
2019-03-29T13:33:38.166Z,11.81
2019-03-29T13:35:46.123Z,11.57
2019-03-29T13:37:53.835Z,11.58
2019-03-29T13:40:01.515Z,11.47
2019-03-29T13:42:10.654Z,11.46
2019-03-29T13:44:24.068Z,11.42
2019-03-29T13:46:27.930Z,11.63
2019-03-29T13:48:35.655Z,11.44
2019-03-29T13:50:43.376Z,11.32
2019-03-29T13:52:51.117Z,11.61
2019-03-29T13:54:58.859Z,11.43
2019-03-29T13:57:06.566Z,11.47
2019-03-29T13:59:14.317Z,11.56
2019-03-29T14:01:21.997Z,11.54
2019-03-29T14:03:30.625Z,11.34
2019-03-29T14:05:38.589Z,11.31
2019-03-29T14:07:46.366Z,11.63
2019-03-29T14:09:54.076Z,11.50
2019-03-29T14:12:01.899Z,11.43
2019-03-29T14:14:09.655Z,11.46
2019-03-29T14:16:17.384Z,11.57
2019-03-29T14:18:25.367Z,11.45
2019-03-29T14:20:36.185Z,11.43
2019-03-29T14:22:43.802Z,11.41
2019-03-29T14:24:54.072Z,11.45
2019-03-29T14:27:00.915Z,11.54
2019-03-29T14:29:08.699Z,11.31
2019-03-29T14:31:18.141Z,11.22
2019-03-29T14:33:25.725Z,11.21
2019-03-29T14:35:33.517Z,11.11
2019-03-29T14:37:41.210Z,11.12
2019-03-29T14:39:48.901Z,11.38
2019-03-29T14:41:56.648Z,11.46
2019-03-29T14:44:05.515Z,11.25
2019-03-29T14:46:13.200Z,11.03
2019-03-29T14:48:21.018Z,11.21
2019-03-29T14:50:28.846Z,11.16
2019-03-29T14:52:36.699Z,11.13
2019-03-29T14:54:44.411Z,11.07
2019-03-29T14:56:52.297Z,11.00
2019-03-29T14:59:00.116Z,11.09
2019-03-29T15:01:07.861Z,11.11
2019-03-29T15:03:15.979Z,11.14
2019-03-29T15:05:23.690Z,11.00
2019-03-29T15:07:31.369Z,10.77
2019-03-29T15:09:39.067Z,10.71
2019-03-29T15:11:46.760Z,10.64
2019-03-29T15:13:54.453Z,10.66
2019-03-29T15:16:02.211Z,10.76
2019-03-29T15:18:10.088Z,10.75
2019-03-29T15:20:17.794Z,10.64
2019-03-29T15:22:25.486Z,10.59
2019-03-29T15:24:33.238Z,10.52
2019-03-29T15:26:40.956Z,10.55
2019-03-29T15:28:48.692Z,10.61
2019-03-29T15:30:56.383Z,10.77
2019-03-29T15:33:04.168Z,10.65
2019-03-29T15:35:12.165Z,10.76
2019-03-29T15:37:19.855Z,10.69
2019-03-29T15:39:27.714Z,10.48
2019-03-29T15:41:35.659Z,10.58
2019-03-29T15:43:43.602Z,10.62
2019-03-29T15:45:51.551Z,10.76
2019-03-29T15:47:59.341Z,10.73
2019-03-29T15:50:08.243Z,10.64
2019-03-29T15:52:15.994Z,10.49
2019-03-29T15:54:23.582Z,10.47
2019-03-29T15:56:31.367Z,10.35
2019-03-29T15:58:40.232Z,10.28
2019-03-29T16:00:47.986Z,10.19
2019-03-29T16:02:55.761Z,10.23
2019-03-29T16:05:03.740Z,10.36
2019-03-29T16:07:12.429Z,10.20
2019-03-29T16:09:20.213Z,10.28
2019-03-29T16:11:28.138Z,10.22
2019-03-29T16:13:35.727Z,10.08
2019-03-29T16:15:43.504Z,10.10
2019-03-29T16:17:51.223Z,10.07
2019-03-29T16:19:58.985Z,10.06
2019-03-29T16:22:06.666Z,10.02
2019-03-29T16:24:14.487Z,10.01
2019-03-29T16:26:22.176Z,9.99
2019-03-29T16:28:29.751Z,10.04
2019-03-29T16:30:37.551Z,9.93
2019-03-29T16:32:45.502Z,9.87
2019-03-29T16:34:53.190Z,9.93
2019-03-29T16:37:00.883Z,9.95
2019-03-29T16:39:09.325Z,9.93
2019-03-29T16:41:17.010Z,10.04
2019-03-29T16:43:24.732Z,9.94
2019-03-29T16:45:46.838Z,9.94
2019-03-29T16:47:42.650Z,9.89
2019-03-29T16:49:50.343Z,9.88
2019-03-29T16:51:58.017Z,9.82
2019-03-29T16:54:06.022Z,9.82
2019-03-29T16:56:13.743Z,9.81
2019-03-29T16:58:21.414Z,9.61
2019-03-29T17:00:28.991Z,9.62
2019-03-29T17:02:36.800Z,9.51
2019-03-29T17:04:44.375Z,9.61
2019-03-29T17:06:52.144Z,9.60
2019-03-29T17:08:59.841Z,9.49
2019-03-29T17:11:07.413Z,9.38
2019-03-29T17:13:15.086Z,9.39
2019-03-29T17:15:22.794Z,9.39
2019-03-29T17:17:30.463Z,9.38
2019-03-29T17:19:38.143Z,9.33
2019-03-29T17:21:46.010Z,9.38
2019-03-29T17:23:53.779Z,9.47
2019-03-29T17:26:01.423Z,9.54
2019-03-29T17:28:10.206Z,9.58
2019-03-29T17:30:22.592Z,9.66
2019-03-29T17:32:30.260Z,9.67
2019-03-29T17:34:38.049Z,9.63
2019-03-29T17:36:45.626Z,9.66
2019-03-29T17:38:53.303Z,9.68
2019-03-29T17:41:02.801Z,9.70
2019-03-29T17:43:10.695Z,9.66
2019-03-29T17:45:18.435Z,9.57
2019-03-29T17:47:26.204Z,9.66
2019-03-29T17:49:33.876Z,9.70
2019-03-29T17:51:41.616Z,9.81
2019-03-29T17:53:49.436Z,9.70
2019-03-29T17:55:57.470Z,9.56
2019-03-29T17:58:05.528Z,9.58
2019-03-29T18:00:15.405Z,9.56
2019-03-29T18:02:23.512Z,9.46
2019-03-29T18:04:31.160Z,9.47
2019-03-29T18:06:38.921Z,9.59
2019-03-29T18:08:46.661Z,9.68
2019-03-29T18:10:55.271Z,9.79
2019-03-29T18:13:02.999Z,9.67
2019-03-29T18:15:11.799Z,9.64
2019-03-29T18:17:19.441Z,9.85
2019-03-29T18:19:27.229Z,9.80
2019-03-29T18:21:34.899Z,9.87
2019-03-29T18:23:45.630Z,9.79
2019-03-29T18:25:54.594Z,9.68
2019-03-29T18:28:02.384Z,9.75
2019-03-29T18:30:12.241Z,9.71
2019-03-29T18:32:20.906Z,9.61
2019-03-29T18:34:28.653Z,9.73
2019-03-29T18:36:36.899Z,9.62
2019-03-29T18:38:47.310Z,9.54
2019-03-29T18:40:55.145Z,9.35
2019-03-29T18:43:03.178Z,9.29
2019-03-29T18:45:12.831Z,9.28
2019-03-29T18:47:20.472Z,9.23
2019-03-29T18:49:28.124Z,9.26
2019-03-29T18:51:35.888Z,9.30
2019-03-29T18:53:43.564Z,9.39
2019-03-29T18:55:51.342Z,9.16
2019-03-29T18:57:59.135Z,9.11
2019-03-29T19:00:08.725Z,8.98
2019-03-29T19:02:16.377Z,9.00
2019-03-29T19:04:24.145Z,9.15
2019-03-29T19:06:32.170Z,9.22
2019-03-29T19:08:39.847Z,9.22
2019-03-29T19:10:47.555Z,9.16
2019-03-29T19:12:55.617Z,9.10
2019-03-29T19:15:03.830Z,8.95
2019-03-29T19:17:11.561Z,8.84
2019-03-29T19:19:19.422Z,8.83
2019-03-29T19:21:27.253Z,8.94
2019-03-29T19:23:35.007Z,8.78
2019-03-29T19:25:42.820Z,8.70
2019-03-29T19:27:50.495Z,8.67
2019-03-29T19:29:58.209Z,8.68
2019-03-29T19:32:05.986Z,8.65
2019-03-29T19:34:13.732Z,8.68
2019-03-29T19:36:21.425Z,8.82
2019-03-29T19:38:29.313Z,8.80
2019-03-29T19:40:37.004Z,8.89
2019-03-29T19:42:44.764Z,8.95
2019-03-29T19:44:52.539Z,8.99
2019-03-29T19:47:12.825Z,8.93
2019-03-29T19:49:09.690Z,8.96
2019-03-29T19:51:18.437Z,8.94
2019-03-29T19:53:26.248Z,8.95
2019-03-29T19:55:34.070Z,8.87
2019-03-29T19:57:41.801Z,8.75
2019-03-29T19:59:49.475Z,8.73
2019-03-29T20:01:57.266Z,8.68
2019-03-29T20:04:09.456Z,8.72
2019-03-29T20:06:14.690Z,8.67
2019-03-29T20:08:22.383Z,8.56
2019-03-29T20:10:30.132Z,8.44
2019-03-29T20:12:37.940Z,8.42
2019-03-29T20:14:46.594Z,8.36
2019-03-29T20:16:55.397Z,8.44
2019-03-29T20:19:03.130Z,8.46
2019-03-29T20:21:10.842Z,8.44
2019-03-29T20:23:18.587Z,8.35
2019-03-29T20:25:26.772Z,8.38
2019-03-29T20:27:35.607Z,8.39
2019-03-29T20:29:43.304Z,8.39
2019-03-29T20:31:51.008Z,8.35
2019-03-29T20:34:00.751Z,8.33
2019-03-29T20:36:08.242Z,8.31
2019-03-29T20:38:15.940Z,8.27
2019-03-29T20:40:23.839Z,8.20
2019-03-29T20:42:32.721Z,8.09
2019-03-29T20:44:40.321Z,8.06
2019-03-29T20:46:49.239Z,8.04
2019-03-29T20:48:57.003Z,7.87
2019-03-29T20:51:04.764Z,7.83
2019-03-29T20:53:12.505Z,7.83
2019-03-29T20:55:20.197Z,7.69
2019-03-29T20:57:27.878Z,7.76
2019-03-29T20:59:36.795Z,7.80
2019-03-29T21:01:44.474Z,7.89
2019-03-29T21:03:52.153Z,7.93
2019-03-29T21:06:01.057Z,7.96
2019-03-29T21:10:15.713Z,8.02
2019-03-29T21:12:23.327Z,8.01
2019-03-29T21:14:31.015Z,8.02
2019-03-29T21:16:40.673Z,7.99
2019-03-29T21:18:48.401Z,7.95
2019-03-29T21:20:57.355Z,7.88
2019-03-29T21:23:05.220Z,7.76
2019-03-29T21:25:13.191Z,7.64
2019-03-29T21:27:20.963Z,7.48
2019-03-29T21:29:29.638Z,7.43
2019-03-29T21:31:37.450Z,7.40
2019-03-29T21:33:45.312Z,7.38
2019-03-29T21:35:52.997Z,7.35
2019-03-29T21:38:00.725Z,7.31
2019-03-29T21:40:09.822Z,7.28
2019-03-29T21:42:20.498Z,7.26
2019-03-29T21:44:28.315Z,7.24
2019-03-29T21:46:36.071Z,7.25
2019-03-29T21:48:43.766Z,7.27
2019-03-29T21:50:51.487Z,7.33
2019-03-29T21:52:59.172Z,7.37
2019-03-29T21:55:07.757Z,7.41
2019-03-29T21:57:15.487Z,7.43
2019-03-29T21:59:25.122Z,7.45
2019-03-29T22:01:32.985Z,7.51
2019-03-29T22:03:40.596Z,7.57
2019-03-29T22:05:48.352Z,7.51
2019-03-29T22:07:56.022Z,7.56
2019-03-29T22:10:06.798Z,7.66
2019-03-29T22:12:17.115Z,7.72
2019-03-29T22:14:24.871Z,7.79
2019-03-29T22:16:32.681Z,7.85
2019-03-29T22:18:41.568Z,7.91
2019-03-29T22:20:49.240Z,7.96
2019-03-29T22:22:58.174Z,8.00
2019-03-29T22:25:09.734Z,8.03
2019-03-29T22:27:17.410Z,8.11
2019-03-29T22:29:25.268Z,8.14
2019-03-29T22:31:32.946Z,8.21
2019-03-29T22:33:41.811Z,8.14
2019-03-29T22:35:49.406Z,7.89
2019-03-29T22:37:57.148Z,7.92
2019-03-29T22:40:08.020Z,8.06
2019-03-29T22:42:15.719Z,8.03
2019-03-29T22:44:23.388Z,8.01
2019-03-29T22:46:31.133Z,8.03
2019-03-29T22:48:51.576Z,8.23
2019-03-29T22:50:49.839Z,8.19
2019-03-29T22:52:57.515Z,8.14
2019-03-29T22:55:09.478Z,8.10
2019-03-29T22:57:17.231Z,8.13
2019-03-29T22:59:24.895Z,7.96
2019-03-29T23:01:37.224Z,7.96
2019-03-29T23:03:45.035Z,7.84
2019-03-29T23:05:52.784Z,7.81
2019-03-29T23:08:00.510Z,7.70
2019-03-29T23:10:09.711Z,7.72
2019-03-29T23:12:17.453Z,7.65
2019-03-29T23:14:25.231Z,7.62
2019-03-29T23:16:32.897Z,7.72
2019-03-29T23:18:40.570Z,7.83
2019-03-29T23:20:48.594Z,7.72
2019-03-29T23:22:56.400Z,7.72
2019-03-29T23:25:05.281Z,7.58
2019-03-29T23:27:13.943Z,7.61
2019-03-29T23:29:21.613Z,7.66
2019-03-29T23:31:29.254Z,7.76
2019-03-29T23:33:37.054Z,7.74
2019-03-29T23:35:44.796Z,7.73
2019-03-29T23:37:53.643Z,7.75
2019-03-29T23:40:01.394Z,7.79
2019-03-29T23:42:09.330Z,7.85
2019-03-29T23:44:17.081Z,7.88
2019-03-29T23:46:25.744Z,7.91
2019-03-29T23:48:33.489Z,7.86
2019-03-29T23:50:41.159Z,7.88
2019-03-29T23:52:48.913Z,7.72
2019-03-29T23:54:56.880Z,7.62
2019-03-29T23:57:04.576Z,7.49
2019-03-29T23:59:12.350Z,7.53
